createdAt,value
2022-08-03T00:01:25.454Z,96907.22
2022-08-03T00:03:52.017Z,96906.72
2022-08-03T00:06:18.684Z,96906.44
2022-08-03T00:08:45.244Z,96902.34
2022-08-03T00:11:11.919Z,96904.44
2022-08-03T00:13:38.449Z,96900.50
2022-08-03T00:16:05.316Z,96910.91
2022-08-03T00:18:31.862Z,96909.41
2022-08-03T00:20:58.335Z,96906.81
2022-08-03T00:23:24.904Z,96902.47
2022-08-03T00:25:51.683Z,96908.25
2022-08-03T00:28:18.212Z,96905.13
2022-08-03T00:30:44.973Z,96901.44
2022-08-03T00:33:11.609Z,96914.22
2022-08-03T00:35:49.217Z,96905.25
2022-08-03T00:38:17.043Z,96908.97
2022-08-03T00:40:43.561Z,96914.00
2022-08-03T00:43:10.810Z,96911.63
2022-08-03T00:45:40.439Z,96910.88
2022-08-03T00:48:33.316Z,96909.81
2022-08-03T00:50:55.749Z,96914.69
2022-08-03T00:53:22.310Z,96916.00
2022-08-03T00:55:48.941Z,96910.84
2022-08-03T00:58:15.369Z,96910.28
2022-08-03T01:00:41.947Z,96911.09
2022-08-03T01:03:10.424Z,96908.16
2022-08-03T01:06:20.323Z,96914.00
2022-08-03T01:08:54.659Z,96911.66
2022-08-03T01:11:32.633Z,96906.94
2022-08-03T01:14:21.157Z,96908.78
2022-08-03T01:16:59.522Z,96902.72
2022-08-03T01:19:29.153Z,96909.88
2022-08-03T01:22:30.379Z,96903.03
2022-08-03T01:25:09.161Z,96898.28
2022-08-03T01:27:56.891Z,96903.13
2022-08-03T01:30:28.158Z,96904.53
2022-08-03T01:33:01.857Z,96894.72
2022-08-03T01:35:47.115Z,96899.16
2022-08-03T01:38:18.344Z,96895.16
2022-08-03T01:40:47.076Z,96894.72
2022-08-03T01:43:55.199Z,96894.50
2022-08-03T01:46:06.705Z,96890.25
2022-08-03T01:48:35.030Z,96895.84
2022-08-03T01:51:01.985Z,96892.44
2022-08-03T01:53:31.343Z,96896.44
2022-08-03T01:55:58.895Z,96892.19
2022-08-03T01:58:26.979Z,96888.22
2022-08-03T02:00:59.361Z,96892.28
2022-08-03T02:03:27.856Z,96897.81
2022-08-03T02:06:17.853Z,96899.13
2022-08-03T02:08:45.343Z,96889.03
2022-08-03T02:11:13.025Z,96897.53
2022-08-03T02:13:40.555Z,96894.88
2022-08-03T02:16:08.320Z,96891.72
2022-08-03T02:18:35.506Z,96895.97
2022-08-03T02:21:05.496Z,96893.91
2022-08-03T02:23:38.890Z,96892.03
2022-08-03T02:26:09.288Z,96886.75
2022-08-03T02:28:38.459Z,96891.81
2022-08-03T02:31:11.685Z,96890.72
2022-08-03T02:33:42.873Z,96897.09
2022-08-03T02:36:13.231Z,96897.94
2022-08-03T02:38:42.868Z,96891.31
2022-08-03T02:41:16.555Z,96895.56
2022-08-03T02:44:06.201Z,96894.00
2022-08-03T02:46:38.469Z,96892.97
2022-08-03T02:49:41.111Z,96894.56
2022-08-03T02:51:55.218Z,96885.56
2022-08-03T02:54:23.847Z,96890.63
2022-08-03T02:56:53.775Z,96894.03
2022-08-03T02:59:21.362Z,96874.47
2022-08-03T03:01:48.920Z,96887.97
2022-08-03T03:04:16.484Z,96877.13
2022-08-03T03:06:44.202Z,96885.63
2022-08-03T03:09:13.769Z,96876.09
2022-08-03T03:11:41.353Z,96885.88
2022-08-03T03:14:11.359Z,96887.19
2022-08-03T03:16:39.383Z,96884.56
2022-08-03T03:19:07.706Z,96885.06
2022-08-03T03:21:36.575Z,96888.56
2022-08-03T03:24:04.922Z,96884.34
2022-08-03T03:26:32.145Z,96881.97
2022-08-03T03:28:59.396Z,96895.50
2022-08-03T03:31:26.077Z,96896.78
2022-08-03T03:33:52.780Z,96899.22
2022-08-03T03:36:19.562Z,96897.88
2022-08-03T03:38:46.179Z,96890.78
2022-08-03T03:41:12.714Z,96899.25
2022-08-03T03:43:39.741Z,96899.78
2022-08-03T03:46:06.551Z,96906.94
2022-08-03T03:48:33.578Z,96905.63
2022-08-03T03:51:01.193Z,96905.09
2022-08-03T03:53:27.911Z,96900.84
2022-08-03T03:55:59.237Z,96900.84
2022-08-03T03:58:30.221Z,96903.75
2022-08-03T04:00:57.032Z,96910.09
2022-08-03T04:03:24.616Z,96898.75
2022-08-03T04:06:10.140Z,96887.09
2022-08-03T04:08:55.434Z,96913.56
2022-08-03T04:11:30.376Z,96914.88
2022-08-03T04:14:23.147Z,96908.47
2022-08-03T04:16:53.680Z,96913.47
2022-08-03T04:19:28.396Z,96915.84
2022-08-03T04:22:00.435Z,96906.94
2022-08-03T04:24:33.525Z,96858.97
2022-08-03T04:27:02.853Z,96911.38
2022-08-03T04:29:33.445Z,96877.06
2022-08-03T04:32:04.518Z,96879.50
2022-08-03T04:34:31.842Z,96869.56
2022-08-03T04:37:02.590Z,96902.28
2022-08-03T04:39:32.480Z,96889.31
2022-08-03T04:42:07.805Z,96880.66
2022-08-03T04:44:39.194Z,96875.81
2022-08-03T04:47:07.930Z,96906.56
2022-08-03T04:49:39.990Z,96932.47
2022-08-03T04:52:17.867Z,96895.00
2022-08-03T04:54:50.245Z,96934.28
2022-08-03T04:57:23.231Z,96940.28
2022-08-03T04:59:58.189Z,96944.22
2022-08-03T05:02:28.565Z,96937.84
2022-08-03T05:04:55.042Z,96923.75
2022-08-03T05:07:25.107Z,96933.78
2022-08-03T05:09:57.618Z,96924.06
2022-08-03T05:12:32.826Z,96935.56
2022-08-03T05:15:00.295Z,96933.03
2022-08-03T05:17:27.320Z,96935.25
2022-08-03T05:19:54.388Z,96928.47
2022-08-03T05:22:21.558Z,96929.91
2022-08-03T05:24:48.315Z,96932.06
2022-08-03T05:27:19.266Z,96929.31
2022-08-03T05:29:47.168Z,96933.94
2022-08-03T05:32:13.691Z,96932.34
2022-08-03T05:34:40.443Z,96935.97
2022-08-03T05:37:07.444Z,96924.72
2022-08-03T05:39:34.769Z,96927.47
2022-08-03T05:42:02.211Z,96932.50
2022-08-03T05:44:29.119Z,96927.44
2022-08-03T05:46:57.679Z,96932.50
2022-08-03T05:49:24.307Z,96929.28
2022-08-03T05:52:00.439Z,96927.16
2022-08-03T05:54:56.938Z,96929.81
2022-08-03T05:57:23.197Z,96926.28
2022-08-03T05:59:55.702Z,96928.78
2022-08-03T06:02:26.407Z,96923.34
2022-08-03T06:04:52.937Z,96927.00
2022-08-03T06:07:19.570Z,96920.63
2022-08-03T06:10:34.196Z,96929.44
2022-08-03T06:12:35.999Z,96931.63
2022-08-03T06:15:04.484Z,96926.75
2022-08-03T06:17:37.601Z,96929.56
2022-08-03T06:20:05.862Z,96941.00
2022-08-03T06:22:32.415Z,96919.91
2022-08-03T06:24:58.967Z,96925.94
2022-08-03T06:27:36.291Z,96924.78
2022-08-03T06:30:04.779Z,96921.94
2022-08-03T06:32:31.327Z,96932.88
2022-08-03T06:34:57.877Z,96925.41
2022-08-03T06:37:24.569Z,96928.97
2022-08-03T06:39:51.148Z,96939.00
2022-08-03T06:42:17.931Z,96931.94
2022-08-03T06:44:47.164Z,96931.25
2022-08-03T06:47:13.713Z,96929.41
2022-08-03T06:49:41.444Z,96931.94
2022-08-03T06:52:08.054Z,96939.00
2022-08-03T06:54:35.677Z,96926.66
2022-08-03T06:57:02.672Z,96940.63
2022-08-03T07:00:08.447Z,96935.72
2022-08-03T07:02:19.396Z,96930.69
2022-08-03T07:04:47.873Z,96942.91
2022-08-03T07:07:14.458Z,96944.34
2022-08-03T07:09:41.792Z,96937.09
2022-08-03T07:12:08.698Z,96938.94
2022-08-03T07:14:35.311Z,96938.75
2022-08-03T07:17:04.591Z,96939.38
2022-08-03T07:19:38.295Z,96942.38
2022-08-03T07:22:04.892Z,96939.75
2022-08-03T07:24:31.403Z,96940.66
2022-08-03T07:26:57.945Z,96937.28
2022-08-03T07:29:25.035Z,96936.03
2022-08-03T07:31:51.679Z,96927.78
2022-08-03T07:34:18.312Z,96925.25
2022-08-03T07:36:44.852Z,96929.50
2022-08-03T07:39:16.008Z,96933.25
2022-08-03T07:41:44.716Z,96928.75
2022-08-03T07:44:11.265Z,96935.72
2022-08-03T07:46:37.808Z,96945.56
2022-08-03T07:49:04.392Z,96928.09
2022-08-03T07:51:30.996Z,96939.56
2022-08-03T07:53:57.764Z,96937.63
2022-08-03T07:56:27.245Z,96933.19
2022-08-03T07:58:54.404Z,96941.22
2022-08-03T08:01:21.392Z,96930.75
2022-08-03T08:03:52.652Z,96927.25
2022-08-03T08:06:20.913Z,96920.59
2022-08-03T08:08:47.804Z,96928.28
2022-08-03T08:11:14.833Z,96918.00
2022-08-03T08:13:41.341Z,96924.81
2022-08-03T08:16:07.935Z,96917.16
2022-08-03T08:18:34.529Z,96919.31
2022-08-03T08:21:03.225Z,96915.81
2022-08-03T08:23:43.423Z,96909.75
2022-08-03T08:26:11.998Z,96912.06
2022-08-03T08:28:39.081Z,96919.25
2022-08-03T08:31:05.601Z,96914.56
2022-08-03T08:34:02.189Z,96907.41
2022-08-03T08:36:21.457Z,96908.56
2022-08-03T08:38:48.000Z,96910.56
2022-08-03T08:41:15.583Z,96913.34
2022-08-03T08:43:42.794Z,96913.22
2022-08-03T08:46:13.023Z,96914.22
2022-08-03T08:48:51.715Z,96915.59
2022-08-03T08:51:20.893Z,96910.94
2022-08-03T08:53:52.971Z,96910.34
2022-08-03T08:56:20.446Z,96915.22
2022-08-03T08:58:57.975Z,96904.69
2022-08-03T09:01:25.182Z,96908.28
2022-08-03T09:03:54.045Z,96901.31
2022-08-03T09:06:22.446Z,96908.81
2022-08-03T09:08:49.072Z,96901.94
2022-08-03T09:11:15.729Z,96908.84
2022-08-03T09:13:42.808Z,96899.88
2022-08-03T09:16:15.225Z,96898.25
2022-08-03T09:18:44.198Z,96900.72
2022-08-03T09:21:32.024Z,96895.22
2022-08-03T09:24:03.848Z,96900.38
2022-08-03T09:26:32.603Z,96898.25
2022-08-03T09:29:06.804Z,96895.97
2022-08-03T09:31:39.958Z,96900.59
2022-08-03T09:34:16.387Z,96894.97
2022-08-03T09:36:45.875Z,96893.28
2022-08-03T09:39:13.695Z,96893.28
2022-08-03T09:41:45.807Z,96903.78
2022-08-03T09:44:24.288Z,96890.47
2022-08-03T09:46:56.530Z,96903.25
2022-08-03T09:49:24.373Z,96896.16
2022-08-03T09:52:30.130Z,96898.59
2022-08-03T09:54:38.798Z,96890.34
2022-08-03T09:57:05.488Z,96883.50
2022-08-03T09:59:33.475Z,96893.06
2022-08-03T10:02:00.886Z,96890.69
2022-08-03T10:04:28.017Z,96886.22
2022-08-03T10:07:10.773Z,96883.66
2022-08-03T10:09:37.932Z,96890.59
2022-08-03T10:12:13.062Z,96886.53
2022-08-03T10:14:45.722Z,96881.25
2022-08-03T10:17:12.456Z,96877.38
2022-08-03T10:19:39.401Z,96878.56
2022-08-03T10:22:22.766Z,96872.41
2022-08-03T10:25:06.940Z,96872.28
2022-08-03T10:27:42.285Z,96871.75
2022-08-03T10:30:12.853Z,96863.25
2022-08-03T10:33:02.695Z,96863.06
2022-08-03T10:35:30.085Z,96852.09
2022-08-03T10:38:00.490Z,96868.44
2022-08-03T10:40:48.085Z,96858.16
2022-08-03T10:43:25.971Z,96854.34
2022-08-03T10:45:52.529Z,96850.50
2022-08-03T10:48:19.870Z,96856.09
2022-08-03T10:50:49.010Z,96855.06
2022-08-03T10:53:16.637Z,96848.16
2022-08-03T10:56:05.551Z,96849.22
2022-08-03T10:58:38.204Z,96844.63
2022-08-03T11:01:54.213Z,96850.50
2022-08-03T11:04:27.215Z,96839.75
2022-08-03T11:07:16.223Z,96839.94
2022-08-03T11:09:45.045Z,96831.88
2022-08-03T11:12:31.431Z,96832.88
2022-08-03T11:15:01.406Z,96829.25
2022-08-03T11:17:28.018Z,96829.59
2022-08-03T11:19:57.432Z,96834.47
2022-08-03T11:22:25.112Z,96825.59
2022-08-03T11:24:53.982Z,96827.53
2022-08-03T11:27:26.021Z,96835.13
2022-08-03T11:30:03.214Z,96830.81
2022-08-03T11:32:40.023Z,96822.50
2022-08-03T11:35:20.293Z,96824.19
2022-08-03T11:38:03.362Z,96824.06
2022-08-03T11:40:42.795Z,96819.75
2022-08-03T11:43:10.853Z,96810.44
2022-08-03T11:45:38.075Z,96814.38
2022-08-03T11:48:17.616Z,96817.38
2022-08-03T11:50:45.431Z,96822.78
2022-08-03T11:53:18.174Z,96820.28
2022-08-03T11:55:49.480Z,96807.50
2022-08-03T11:59:00.775Z,96804.75
2022-08-03T12:01:08.661Z,96808.00
2022-08-03T12:03:36.289Z,96805.06
2022-08-03T12:06:04.387Z,96801.44
2022-08-03T12:08:33.759Z,96805.56
2022-08-03T12:11:04.449Z,96805.69
2022-08-03T12:14:44.816Z,96796.47
2022-08-03T12:16:39.981Z,96799.69
2022-08-03T12:19:06.939Z,96802.34
2022-08-03T12:21:33.713Z,96808.59
2022-08-03T12:24:05.862Z,96796.47
2022-08-03T12:26:54.525Z,96798.91
2022-08-03T12:29:26.364Z,96798.56
2022-08-03T12:31:53.001Z,96788.41
2022-08-03T12:34:19.688Z,96798.19
2022-08-03T12:36:56.769Z,96778.69
2022-08-03T12:39:25.477Z,96774.81
2022-08-03T12:41:56.782Z,96780.25
2022-08-03T12:44:34.632Z,96772.84
2022-08-03T12:47:02.759Z,96775.59
2022-08-03T12:49:30.459Z,96769.31
2022-08-03T12:52:02.823Z,96783.75
2022-08-03T12:54:33.893Z,96772.84
2022-08-03T12:57:01.551Z,96766.25
2022-08-03T12:59:35.351Z,96764.72
2022-08-03T13:02:23.707Z,96769.34
2022-08-03T13:04:51.542Z,96765.84
2022-08-03T13:07:19.511Z,96768.97
2022-08-03T13:09:49.566Z,96767.00
2022-08-03T13:12:21.333Z,96760.81
2022-08-03T13:14:50.714Z,96770.91
2022-08-03T13:17:18.377Z,96764.28
2022-08-03T13:19:46.472Z,96771.69
2022-08-03T13:22:17.247Z,96768.19
2022-08-03T13:24:45.801Z,96770.13
2022-08-03T13:27:22.087Z,96772.41
2022-08-03T13:30:00.092Z,96767.00
2022-08-03T13:32:26.649Z,96770.09
2022-08-03T13:34:53.225Z,96765.44
2022-08-03T13:37:19.993Z,96758.81
2022-08-03T13:40:00.268Z,96761.09
2022-08-03T13:42:31.024Z,96751.44
2022-08-03T13:44:57.853Z,96749.91
2022-08-03T13:47:24.710Z,96746.38
2022-08-03T13:49:59.728Z,96747.56
2022-08-03T13:52:33.675Z,96741.69
2022-08-03T13:55:01.138Z,96740.53
2022-08-03T13:58:04.545Z,96744.44
2022-08-03T14:00:28.212Z,96735.81
2022-08-03T14:03:12.807Z,96732.72
2022-08-03T14:05:41.073Z,96733.09
2022-08-03T14:08:07.860Z,96732.34
2022-08-03T14:10:39.120Z,96735.06
2022-08-03T14:13:06.184Z,96725.31
2022-08-03T14:15:37.867Z,96730.38
2022-08-03T14:18:04.818Z,96727.63
2022-08-03T14:20:37.892Z,96715.16
2022-08-03T14:23:07.161Z,96724.91
2022-08-03T14:25:49.865Z,96716.31
2022-08-03T14:28:23.060Z,96724.50
2022-08-03T14:30:54.186Z,96717.16
2022-08-03T14:33:20.741Z,96716.31
2022-08-03T14:35:48.200Z,96711.28
2022-08-03T14:38:15.230Z,96717.19
2022-08-03T14:40:42.152Z,96709.28
2022-08-03T14:43:08.762Z,96710.47
2022-08-03T14:45:35.351Z,96718.75
2022-08-03T14:50:24.979Z,96710.16
2022-08-03T14:50:52.856Z,96710.56
2022-08-03T14:53:20.048Z,96712.09
2022-08-03T14:55:49.621Z,96715.59
2022-08-03T14:58:20.636Z,96713.66
2022-08-03T15:00:47.975Z,96710.16
2022-08-03T15:03:16.786Z,96704.31
2022-08-03T15:05:43.805Z,96701.59
2022-08-03T15:08:10.325Z,96694.56
2022-08-03T15:10:44.605Z,96696.94
2022-08-03T15:13:15.316Z,96695.38
2022-08-03T15:15:42.231Z,96687.22
2022-08-03T15:18:08.964Z,96686.81
2022-08-03T15:20:51.051Z,96680.94
2022-08-03T15:23:18.454Z,96680.94
2022-08-03T15:26:03.814Z,96683.69
2022-08-03T15:28:33.087Z,96681.34
2022-08-03T15:31:00.306Z,96675.53
2022-08-03T15:33:26.930Z,96677.88
2022-08-03T15:35:53.937Z,96689.91
2022-08-03T15:38:26.217Z,96682.91
2022-08-03T15:40:54.558Z,96687.63
2022-08-03T15:43:22.171Z,96683.72
2022-08-03T15:45:54.659Z,96681.28
2022-08-03T15:48:35.256Z,96688.38
2022-08-03T15:51:01.942Z,96680.19
2022-08-03T15:53:28.466Z,96673.16
2022-08-03T15:55:55.017Z,96683.66
2022-08-03T15:59:04.449Z,96684.06
2022-08-03T16:01:08.350Z,96680.13
2022-08-03T16:03:35.482Z,96677.72
2022-08-03T16:06:06.750Z,96677.38
2022-08-03T16:08:33.655Z,96679.78
2022-08-03T16:11:00.931Z,96679.69
2022-08-03T16:14:12.871Z,96679.56
2022-08-03T16:16:14.377Z,96677.28
2022-08-03T16:18:41.929Z,96664.00
2022-08-03T16:21:08.461Z,96668.31
2022-08-03T16:23:40.345Z,96663.97
2022-08-03T16:26:10.076Z,96658.13
2022-08-03T16:28:38.703Z,96658.94
2022-08-03T16:31:06.196Z,96668.16
2022-08-03T16:33:33.422Z,96661.06
2022-08-03T16:35:59.998Z,96667.50
2022-08-03T16:38:26.915Z,96670.22
2022-08-03T16:40:53.490Z,96659.22
2022-08-03T16:43:22.457Z,96655.16
2022-08-03T16:45:49.617Z,96658.75
2022-08-03T16:48:17.187Z,96666.44
2022-08-03T16:50:44.680Z,96657.03
2022-08-03T16:53:16.676Z,96658.00
2022-08-03T16:55:53.079Z,96666.38
2022-08-03T16:58:34.858Z,96662.97
2022-08-03T17:01:22.507Z,96655.91
2022-08-03T17:04:04.894Z,96653.56
2022-08-03T17:06:35.535Z,96649.69
2022-08-03T17:09:08.415Z,96654.94
2022-08-03T17:11:37.797Z,96646.13
2022-08-03T17:14:09.206Z,96649.28
2022-08-03T17:16:38.489Z,96655.31
2022-08-03T17:19:06.907Z,96661.16
2022-08-03T17:21:37.626Z,96660.78
2022-08-03T17:24:27.254Z,96659.31
2022-08-03T17:26:55.019Z,96666.41
2022-08-03T17:29:30.039Z,96663.28
2022-08-03T17:31:57.002Z,96665.28
2022-08-03T17:34:26.570Z,96668.31
2022-08-03T17:37:27.264Z,96665.78
2022-08-03T17:39:58.089Z,96676.56
2022-08-03T17:42:31.320Z,96673.94
2022-08-03T17:45:02.447Z,96674.97
2022-08-03T17:47:42.949Z,96673.84
2022-08-03T17:50:24.390Z,96671.91
2022-08-03T17:53:07.606Z,96679.94
2022-08-03T17:55:57.370Z,96669.53
2022-08-03T17:59:50.891Z,96682.00
2022-08-03T18:02:54.509Z,96684.00
2022-08-03T18:06:11.370Z,96693.38
2022-08-03T18:08:28.204Z,96687.41
2022-08-03T18:11:35.884Z,96692.72
2022-08-03T18:14:42.787Z,96691.19
2022-08-03T18:17:58.145Z,96692.81
2022-08-03T18:20:32.842Z,96695.25
2022-08-03T18:23:04.652Z,96688.41
2022-08-03T18:25:44.409Z,96692.09
2022-08-03T18:28:18.891Z,96691.03
2022-08-03T18:30:54.776Z,96695.81
2022-08-03T18:34:19.727Z,96693.75
2022-08-03T18:36:17.379Z,96694.78
2022-08-03T18:38:48.018Z,96705.56
2022-08-03T18:41:22.064Z,96701.38
2022-08-03T18:44:08.661Z,96702.19
2022-08-03T18:47:02.956Z,96695.66
2022-08-03T18:49:53.205Z,96696.19
2022-08-03T18:52:31.001Z,96698.25
2022-08-03T18:55:21.538Z,96697.59
2022-08-03T18:58:00.842Z,96708.38
2022-08-03T19:00:42.470Z,96708.75
2022-08-03T19:03:24.034Z,96709.00
2022-08-03T19:06:09.477Z,96712.50
2022-08-03T19:08:49.634Z,96713.97
2022-08-03T19:12:12.795Z,96709.25
2022-08-03T19:14:28.591Z,96720.09
2022-08-03T19:17:09.879Z,96722.88
2022-08-03T19:19:43.622Z,96724.03
2022-08-03T19:22:19.648Z,96730.72
2022-08-03T19:24:47.754Z,96730.72
2022-08-03T19:27:15.938Z,96728.78
2022-08-03T19:29:59.123Z,96731.53
2022-08-03T19:32:29.450Z,96737.97
2022-08-03T19:34:57.116Z,96739.97
2022-08-03T19:37:27.505Z,96736.09
2022-08-03T19:40:05.226Z,96740.34
2022-08-03T19:42:44.403Z,96738.78
2022-08-03T19:45:15.518Z,96743.91
2022-08-03T19:47:52.506Z,96744.38
2022-08-03T19:50:20.327Z,96745.38
2022-08-03T19:52:49.708Z,96747.16
2022-08-03T19:55:17.542Z,96746.25
2022-08-03T19:57:49.270Z,96749.44
2022-08-03T20:00:19.864Z,96743.53
2022-08-03T20:02:47.270Z,96746.06
2022-08-03T20:05:18.377Z,96739.00
2022-08-03T20:07:47.885Z,96745.31
2022-08-03T20:10:16.654Z,96753.44
2022-08-03T20:12:46.969Z,96745.75
2022-08-03T20:15:18.391Z,96744.31
2022-08-03T20:17:54.348Z,96742.91
2022-08-03T20:20:26.131Z,96756.84
2022-08-03T20:22:57.646Z,96753.84
2022-08-03T20:25:37.886Z,96749.91
2022-08-03T20:28:14.154Z,96750.59
2022-08-03T20:30:46.342Z,96746.66
2022-08-03T20:33:18.748Z,96753.94
2022-08-03T20:35:48.874Z,96753.63
2022-08-03T20:38:18.565Z,96746.41
2022-08-03T20:40:46.324Z,96752.75
2022-08-03T20:43:12.896Z,96748.47
2022-08-03T20:46:00.205Z,96739.78
2022-08-03T20:48:28.113Z,96750.97
2022-08-03T20:50:56.423Z,96754.63
2022-08-03T20:53:57.012Z,96751.63
2022-08-03T20:56:10.079Z,96749.72
2022-08-03T20:58:36.982Z,96744.06
2022-08-03T21:01:08.392Z,96744.69
2022-08-03T21:03:41.123Z,96747.53
2022-08-03T21:06:27.511Z,96738.41
2022-08-03T21:09:05.169Z,96745.16
2022-08-03T21:11:41.833Z,96745.31
2022-08-03T21:14:42.300Z,96748.13
2022-08-03T21:17:19.437Z,96744.38
2022-08-03T21:19:57.254Z,96752.00
2022-08-03T21:22:25.864Z,96753.59
2022-08-03T21:24:55.986Z,96745.88
2022-08-03T21:27:24.662Z,96752.50
2022-08-03T21:29:53.098Z,96750.59
2022-08-03T21:32:32.554Z,96745.06
2022-08-03T21:34:59.735Z,96739.53
2022-08-03T21:37:27.561Z,96743.94
2022-08-03T21:39:55.264Z,96747.84
2022-08-03T21:42:25.776Z,96742.31
2022-08-03T21:44:53.001Z,96743.25
2022-08-03T21:47:22.851Z,96742.44
2022-08-03T21:50:06.265Z,96745.25
2022-08-03T21:52:40.376Z,96749.13
2022-08-03T21:55:08.028Z,96746.59
2022-08-03T21:57:37.718Z,96746.06
2022-08-03T22:02:30.103Z,96753.28
2022-08-03T22:04:58.705Z,96749.28
2022-08-03T22:07:28.266Z,96752.19
2022-08-03T22:10:01.075Z,96748.91
2022-08-03T22:12:30.651Z,96755.47
2022-08-03T22:15:01.366Z,96740.97
2022-08-03T22:17:55.240Z,96748.00
2022-08-03T22:20:19.920Z,96742.50
2022-08-03T22:22:52.168Z,96740.44
2022-08-03T22:25:27.363Z,96744.69
2022-08-03T22:27:54.844Z,96752.47
2022-08-03T22:30:21.703Z,96751.00
2022-08-03T22:32:51.852Z,96753.97
2022-08-03T22:35:20.711Z,96750.66
2022-08-03T22:37:49.520Z,96752.81
2022-08-03T22:40:16.811Z,96758.03
2022-08-03T22:42:49.322Z,96758.66
2022-08-03T22:46:06.845Z,96762.28
2022-08-03T22:48:08.256Z,96760.22
2022-08-03T22:50:34.917Z,96760.16
2022-08-03T22:53:01.495Z,96759.66
2022-08-03T22:55:28.573Z,96751.09
2022-08-03T22:57:56.208Z,96767.72
2022-08-03T23:00:24.243Z,96767.63
2022-08-03T23:02:53.732Z,96766.91
2022-08-03T23:06:00.611Z,96772.84
2022-08-03T23:08:12.366Z,96777.09
2022-08-03T23:10:46.156Z,96776.72
2022-08-03T23:13:16.450Z,96778.50
2022-08-03T23:15:50.747Z,96775.56
2022-08-03T23:18:20.812Z,96766.97
2022-08-03T23:20:51.438Z,96774.78
2022-08-03T23:23:19.859Z,96776.91
2022-08-03T23:25:49.483Z,96780.69
2022-08-03T23:28:16.857Z,96775.94
2022-08-03T23:30:44.932Z,96776.53
2022-08-03T23:33:13.731Z,96782.53
2022-08-03T23:36:22.618Z,96778.97
2022-08-03T23:38:48.489Z,96785.19
2022-08-03T23:41:18.563Z,96778.84
2022-08-03T23:43:52.098Z,96777.88
2022-08-03T23:46:25.826Z,96778.84
2022-08-03T23:48:53.835Z,96775.50
2022-08-03T23:52:00.281Z,96779.16
2022-08-03T23:54:45.062Z,96778.16
2022-08-03T23:57:11.494Z,96778.66
2022-08-03T23:59:55.699Z,96775.28
